createdAt,value
2022-09-15T00:02:31.335Z,81.85
2022-09-15T00:05:34.098Z,81.98
2022-09-15T00:08:36.836Z,82.38
2022-09-15T00:11:39.474Z,83.13
2022-09-15T00:14:43.418Z,84.12
2022-09-15T00:17:49.933Z,84.58
2022-09-15T00:20:53.039Z,85.33
2022-09-15T00:23:55.699Z,85.82
2022-09-15T00:26:58.305Z,86.38
2022-09-15T00:30:02.454Z,86.24
2022-09-15T00:33:05.180Z,86.66
2022-09-15T00:36:12.177Z,85.71
2022-09-15T00:39:14.797Z,84.11
2022-09-15T00:42:18.527Z,83.93
2022-09-15T00:45:22.698Z,82.02
2022-09-15T00:48:25.229Z,81.97
2022-09-15T00:51:33.999Z,81.56
2022-09-15T00:54:38.917Z,81.44
2022-09-15T00:57:45.137Z,79.60
2022-09-15T01:00:52.488Z,78.55
2022-09-15T01:03:56.041Z,78.56
2022-09-15T01:07:01.313Z,78.35
2022-09-15T01:10:06.726Z,79.48
2022-09-15T01:13:10.990Z,80.90
2022-09-15T01:16:20.758Z,81.78
2022-09-15T01:20:08.072Z,83.19
2022-09-15T01:23:27.748Z,84.46
2022-09-15T01:27:24.126Z,84.00
2022-09-15T01:30:30.941Z,82.65
2022-09-15T01:33:38.666Z,83.11
2022-09-15T01:36:44.718Z,82.89
2022-09-15T01:39:50.123Z,82.24
2022-09-15T01:42:54.334Z,83.12
2022-09-15T01:45:58.685Z,83.61
2022-09-15T01:49:02.296Z,84.15
2022-09-15T01:52:05.252Z,83.89
2022-09-15T01:55:14.093Z,83.47
2022-09-15T01:58:16.760Z,84.00
2022-09-15T02:01:32.042Z,84.48
2022-09-15T02:04:39.003Z,83.00
2022-09-15T02:07:47.473Z,81.05
2022-09-15T02:10:58.865Z,79.08
2022-09-15T02:14:11.508Z,78.16
2022-09-15T02:17:18.966Z,76.96
2022-09-15T02:20:25.640Z,75.95
2022-09-15T02:23:31.319Z,75.43
2022-09-15T02:26:35.705Z,75.33
2022-09-15T02:29:39.516Z,76.24
2022-09-15T02:32:49.218Z,77.14
2022-09-15T02:35:52.800Z,77.32
2022-09-15T02:39:00.490Z,76.99
2022-09-15T02:42:03.096Z,76.84
2022-09-15T02:45:06.827Z,76.75
2022-09-15T02:48:10.784Z,76.85
2022-09-15T02:51:14.312Z,76.95
2022-09-15T02:54:16.976Z,77.06
2022-09-15T02:57:19.860Z,77.71
2022-09-15T03:00:22.669Z,78.69
2022-09-15T03:03:26.676Z,77.96
2022-09-15T03:06:34.403Z,78.42
2022-09-15T03:09:37.377Z,78.29
2022-09-15T03:12:40.639Z,78.02
2022-09-15T03:15:43.530Z,78.24
2022-09-15T03:18:48.345Z,78.07
2022-09-15T03:21:51.075Z,78.12
2022-09-15T03:24:53.668Z,77.30
2022-09-15T03:27:56.252Z,77.45
2022-09-15T03:30:58.941Z,77.75
2022-09-15T03:34:02.891Z,78.13
2022-09-15T03:37:05.474Z,77.99
2022-09-15T03:40:09.336Z,77.96
2022-09-15T03:43:16.632Z,78.10
2022-09-15T03:46:22.187Z,78.06
2022-09-15T03:49:26.527Z,78.03
2022-09-15T03:52:31.912Z,77.77
2022-09-15T03:55:34.486Z,78.33
2022-09-15T03:58:37.142Z,78.85
2022-09-15T04:01:40.032Z,78.85
2022-09-15T04:04:44.130Z,79.17
2022-09-15T04:07:46.728Z,79.11
2022-09-15T04:10:49.337Z,79.17
2022-09-15T04:13:53.690Z,79.11
2022-09-15T04:16:56.313Z,78.81
2022-09-15T04:23:02.655Z,78.88
2022-09-15T04:26:07.462Z,78.30
2022-09-15T04:29:14.036Z,78.17
2022-09-15T04:32:16.635Z,79.22
2022-09-15T04:35:22.155Z,81.61
2022-09-15T04:38:24.757Z,82.30
2022-09-15T04:41:29.032Z,82.05
2022-09-15T04:44:31.833Z,82.05
2022-09-15T04:47:34.475Z,81.94
2022-09-15T04:50:40.582Z,81.22
2022-09-15T04:53:43.316Z,81.20
2022-09-15T04:56:46.157Z,80.47
2022-09-15T04:59:49.142Z,79.19
2022-09-15T05:02:51.742Z,78.70
2022-09-15T05:05:55.727Z,78.07
2022-09-15T05:08:58.857Z,77.25
2022-09-15T05:12:01.737Z,76.81
2022-09-15T05:15:04.906Z,76.55
2022-09-15T05:18:07.735Z,75.71
2022-09-15T05:21:13.692Z,75.75
2022-09-15T05:24:16.654Z,75.61
2022-09-15T05:27:20.269Z,76.30
2022-09-15T05:30:42.485Z,77.49
2022-09-15T05:33:46.191Z,77.13
2022-09-15T05:36:49.966Z,76.09
2022-09-15T05:39:52.581Z,75.35
2022-09-15T05:42:55.307Z,75.00
2022-09-15T05:45:57.984Z,74.45
2022-09-15T05:49:00.655Z,74.64
2022-09-15T05:52:05.168Z,74.38
2022-09-15T05:55:10.044Z,74.37
2022-09-15T05:58:12.814Z,74.02
2022-09-15T06:01:17.667Z,73.20
2022-09-15T06:04:20.335Z,72.67
2022-09-15T06:07:24.365Z,72.64
2022-09-15T06:10:27.245Z,72.84
2022-09-15T06:13:30.170Z,72.11
2022-09-15T06:16:34.493Z,71.24
2022-09-15T06:19:37.393Z,70.73
2022-09-15T06:22:41.397Z,69.97
2022-09-15T06:25:44.245Z,70.21
2022-09-15T06:28:49.670Z,70.26
2022-09-15T06:31:52.324Z,71.66
2022-09-15T06:34:55.201Z,73.52
2022-09-15T06:37:59.128Z,77.59
2022-09-15T06:41:01.715Z,80.53
2022-09-15T06:44:04.660Z,83.38
2022-09-15T06:47:07.441Z,85.00
2022-09-15T06:50:10.506Z,86.67
2022-09-15T06:53:14.489Z,89.06
2022-09-15T06:56:19.216Z,89.82
2022-09-15T06:59:23.893Z,91.03
2022-09-15T07:02:26.819Z,91.78
2022-09-15T07:05:30.708Z,92.18
2022-09-15T07:08:35.317Z,92.54
2022-09-15T07:11:37.980Z,93.01
2022-09-15T07:14:40.637Z,93.15
2022-09-15T07:17:43.232Z,94.32
2022-09-15T07:20:46.009Z,94.58
2022-09-15T07:23:50.307Z,94.83
2022-09-15T07:26:52.985Z,94.81
2022-09-15T07:29:55.650Z,94.95
2022-09-15T07:32:58.340Z,94.69
2022-09-15T07:39:30.896Z,94.20
2022-09-15T07:42:35.561Z,93.63
2022-09-15T07:45:38.425Z,92.88
2022-09-15T07:48:41.173Z,93.22
2022-09-15T07:51:43.801Z,93.56
2022-09-15T07:54:47.741Z,92.79
2022-09-15T07:57:57.518Z,93.39
2022-09-15T08:01:03.023Z,93.75
2022-09-15T08:04:05.642Z,93.77
2022-09-15T08:07:08.315Z,94.05
2022-09-15T08:10:12.397Z,94.42
2022-09-15T08:13:15.093Z,95.06
2022-09-15T08:16:19.608Z,94.21
2022-09-15T08:19:22.390Z,94.54
2022-09-15T08:22:25.024Z,95.02
2022-09-15T08:25:28.911Z,94.12
2022-09-15T08:28:31.624Z,93.70
2022-09-15T08:31:34.248Z,94.50
2022-09-15T08:34:36.929Z,94.27
2022-09-15T08:37:39.861Z,93.45
2022-09-15T08:40:45.478Z,93.16
2022-09-15T08:43:52.762Z,93.14
2022-09-15T08:47:00.070Z,91.55
2022-09-15T08:50:05.814Z,92.06
2022-09-15T08:53:12.824Z,90.25
2022-09-15T08:56:18.782Z,89.52
2022-09-15T08:59:21.938Z,89.50
2022-09-15T09:02:52.040Z,87.53
2022-09-15T09:05:59.059Z,83.65
2022-09-15T09:09:06.532Z,79.28
2022-09-15T09:12:41.038Z,77.13
2022-09-15T09:15:54.655Z,75.89
2022-09-15T09:19:13.629Z,75.79
2022-09-15T09:22:19.675Z,75.88
2022-09-15T09:25:27.990Z,76.11
2022-09-15T09:28:33.730Z,75.95
2022-09-15T09:31:37.729Z,76.22
2022-09-15T09:34:44.328Z,76.75
2022-09-15T09:37:47.061Z,77.26
2022-09-15T09:40:50.310Z,77.82
2022-09-15T09:43:54.322Z,79.74
2022-09-15T09:46:56.891Z,81.04
2022-09-15T09:49:59.791Z,80.12
2022-09-15T09:53:19.811Z,81.59
2022-09-15T09:56:25.466Z,81.88
2022-09-15T09:59:41.155Z,84.23
2022-09-15T10:02:47.928Z,86.82
2022-09-15T10:06:05.357Z,90.90
2022-09-15T10:09:10.983Z,91.55
2022-09-15T10:12:20.067Z,92.15
2022-09-15T10:15:25.974Z,95.30
2022-09-15T10:18:32.948Z,96.93
2022-09-15T10:21:39.652Z,97.56
2022-09-15T10:24:42.848Z,98.58
2022-09-15T10:27:45.483Z,97.89
2022-09-15T10:31:03.104Z,98.17
2022-09-15T10:34:27.758Z,97.95
2022-09-15T10:37:44.874Z,98.33
2022-09-15T10:40:51.668Z,100.00
2022-09-15T10:44:27.550Z,100.00
2022-09-15T10:47:42.728Z,100.00
2022-09-15T10:50:55.541Z,100.00
2022-09-15T10:54:09.736Z,99.84
2022-09-15T10:57:23.547Z,100.00
2022-09-15T11:00:30.027Z,99.36
2022-09-15T11:03:52.720Z,100.00
2022-09-15T11:07:02.354Z,100.00
2022-09-15T11:10:12.288Z,100.00
2022-09-15T11:13:20.682Z,100.00
2022-09-15T11:16:33.240Z,100.00
2022-09-15T11:19:52.461Z,100.00
2022-09-15T11:22:58.253Z,100.00
2022-09-15T11:26:06.357Z,100.00
2022-09-15T11:29:15.794Z,99.73
2022-09-15T11:32:22.440Z,98.66
2022-09-15T11:35:35.966Z,98.67
2022-09-15T11:38:42.946Z,99.04
2022-09-15T11:41:49.694Z,99.70
2022-09-15T11:44:52.700Z,99.33
2022-09-15T11:47:58.245Z,97.80
2022-09-15T11:51:03.772Z,95.82
2022-09-15T11:54:09.822Z,95.62
2022-09-15T11:57:18.003Z,94.45
2022-09-15T12:00:21.661Z,93.95
2022-09-15T12:03:29.856Z,92.77
2022-09-15T12:06:43.299Z,92.23
2022-09-15T12:09:49.851Z,93.01
2022-09-15T12:12:54.357Z,93.04
2022-09-15T12:15:57.559Z,91.44
2022-09-15T12:19:04.459Z,86.17
2022-09-15T12:22:12.585Z,84.38
2022-09-15T12:25:19.142Z,82.70
2022-09-15T12:28:28.148Z,81.38
2022-09-15T12:31:36.189Z,77.33
2022-09-15T12:34:39.406Z,70.99
2022-09-15T12:37:46.328Z,67.86
2022-09-15T12:40:57.889Z,67.51
2022-09-15T12:44:06.442Z,67.00
2022-09-15T12:47:26.781Z,67.48
2022-09-15T12:50:31.780Z,72.22
2022-09-15T12:53:39.100Z,71.66
2022-09-15T12:56:51.874Z,72.41
2022-09-15T13:00:29.822Z,69.00
2022-09-15T13:04:05.874Z,67.71
2022-09-15T13:07:53.991Z,66.02
2022-09-15T13:11:04.181Z,66.26
2022-09-15T13:14:16.327Z,65.37
2022-09-15T13:17:22.551Z,65.30
2022-09-15T13:20:31.828Z,61.64
2022-09-15T13:23:37.970Z,61.11
2022-09-15T13:26:44.689Z,61.49
2022-09-15T13:29:50.115Z,60.53
2022-09-15T13:32:56.916Z,59.28
2022-09-15T13:36:11.065Z,59.43
2022-09-15T13:39:27.955Z,54.74
2022-09-15T13:42:44.265Z,54.35
2022-09-15T13:45:59.743Z,54.35
2022-09-15T13:49:16.631Z,52.65
2022-09-15T13:52:31.021Z,52.55
2022-09-15T13:55:35.214Z,50.47
2022-09-15T13:59:01.549Z,41.07
2022-09-15T14:02:09.070Z,38.54
2022-09-15T14:05:13.052Z,42.71
2022-09-15T14:08:18.209Z,51.76
2022-09-15T14:11:24.949Z,52.41
2022-09-15T14:14:37.530Z,42.57
2022-09-15T14:17:45.790Z,31.60
2022-09-15T14:20:58.558Z,31.80
2022-09-15T14:24:05.336Z,33.47
2022-09-15T14:27:09.815Z,40.46
2022-09-15T14:30:20.472Z,40.90
2022-09-15T14:33:23.465Z,35.57
2022-09-15T14:36:27.936Z,31.27
2022-09-15T14:39:31.054Z,27.87
2022-09-15T14:42:35.121Z,27.30
2022-09-15T14:49:10.834Z,28.36
2022-09-15T14:52:24.132Z,29.08
2022-09-15T14:55:29.109Z,24.25
2022-09-15T14:58:35.837Z,23.60
2022-09-15T15:01:41.641Z,23.94
2022-09-15T15:04:46.522Z,26.23
2022-09-15T15:07:50.131Z,25.91
2022-09-15T15:10:52.818Z,26.79
2022-09-15T15:13:56.999Z,25.34
2022-09-15T15:17:03.035Z,22.19
2022-09-15T15:20:17.876Z,30.60
2022-09-15T15:23:23.713Z,32.58
2022-09-15T15:26:34.394Z,36.65
2022-09-15T15:29:43.087Z,41.07
2022-09-15T15:32:47.262Z,44.00
2022-09-15T15:36:02.393Z,43.53
2022-09-15T15:39:07.058Z,41.24
2022-09-15T15:42:16.579Z,40.21
2022-09-15T15:45:24.799Z,32.75
2022-09-15T15:48:36.778Z,25.75
2022-09-15T15:51:40.559Z,24.31
2022-09-15T15:54:43.323Z,34.73
2022-09-15T15:57:46.606Z,36.05
2022-09-15T16:00:51.150Z,34.16
2022-09-15T16:03:55.885Z,32.49
2022-09-15T16:06:58.610Z,34.69
2022-09-15T16:10:01.770Z,34.94
2022-09-15T16:13:04.382Z,32.05
2022-09-15T16:16:15.285Z,37.28
2022-09-15T16:19:19.347Z,41.32
2022-09-15T16:22:22.380Z,40.96
2022-09-15T16:25:33.089Z,39.17
2022-09-15T16:28:35.948Z,44.90
2022-09-15T16:31:38.918Z,48.72
2022-09-15T16:34:43.062Z,51.39
2022-09-15T16:37:46.106Z,52.85
2022-09-15T16:40:49.219Z,53.86
2022-09-15T16:43:53.199Z,55.74
2022-09-15T16:46:56.005Z,56.00
2022-09-15T16:50:00.223Z,57.39
2022-09-15T16:53:02.990Z,59.23
2022-09-15T16:56:07.448Z,60.39
2022-09-15T16:59:10.139Z,59.68
2022-09-15T17:02:14.040Z,60.36
2022-09-15T17:05:22.133Z,60.23
2022-09-15T17:08:27.188Z,61.45
2022-09-15T17:11:30.299Z,60.26
2022-09-15T17:14:32.972Z,60.94
2022-09-15T17:17:35.654Z,62.00
2022-09-15T17:20:39.736Z,63.49
2022-09-15T17:23:44.738Z,64.05
2022-09-15T17:26:47.657Z,64.57
2022-09-15T17:29:50.328Z,64.97
2022-09-15T17:32:53.621Z,65.34
2022-09-15T17:35:57.641Z,66.23
2022-09-15T17:39:00.472Z,65.92
2022-09-15T17:42:03.174Z,65.36
2022-09-15T17:45:21.972Z,65.90
2022-09-15T17:48:25.365Z,66.23
2022-09-15T17:51:29.442Z,66.10
2022-09-15T17:54:32.444Z,66.41
2022-09-15T17:57:35.153Z,67.16
2022-09-15T18:00:40.532Z,66.71
2022-09-15T18:03:44.509Z,66.28
2022-09-15T18:06:48.468Z,66.63
2022-09-15T18:09:51.362Z,66.73
2022-09-15T18:12:55.613Z,67.20
2022-09-15T18:15:59.557Z,66.46
2022-09-15T18:19:02.152Z,67.02
2022-09-15T18:22:06.097Z,66.39
2022-09-15T18:25:15.489Z,66.44
2022-09-15T18:28:19.066Z,65.51
2022-09-15T18:31:21.840Z,66.13
2022-09-15T18:34:24.707Z,66.16
2022-09-15T18:37:28.836Z,66.83
2022-09-15T18:40:31.446Z,68.34
2022-09-15T18:43:34.262Z,69.40
2022-09-15T18:46:39.221Z,70.60
2022-09-15T18:49:42.168Z,70.26
2022-09-15T18:52:46.133Z,69.79
2022-09-15T18:55:48.848Z,70.22
2022-09-15T18:58:54.322Z,69.57
2022-09-15T19:01:56.992Z,70.20
2022-09-15T19:05:00.147Z,69.69
2022-09-15T19:08:05.247Z,69.23
2022-09-15T19:11:08.053Z,68.56
2022-09-15T19:14:10.839Z,69.66
2022-09-15T19:17:13.779Z,69.75
2022-09-15T19:20:17.393Z,70.36
2022-09-15T19:23:21.590Z,71.02
2022-09-15T19:26:28.591Z,71.61
2022-09-15T19:29:34.587Z,72.73
2022-09-15T19:32:37.709Z,73.17
2022-09-15T19:35:42.924Z,73.56
2022-09-15T19:38:46.908Z,74.16
2022-09-15T19:41:49.677Z,74.58
2022-09-15T19:44:53.106Z,75.06
2022-09-15T19:47:55.503Z,75.42
2022-09-15T19:50:58.289Z,75.71
2022-09-15T19:54:02.431Z,75.47
2022-09-15T19:57:05.551Z,74.87
2022-09-15T20:00:10.310Z,75.42
2022-09-15T20:03:13.018Z,76.02
2022-09-15T20:06:15.642Z,76.81
2022-09-15T20:09:19.684Z,76.70
2022-09-15T20:12:22.416Z,76.54
2022-09-15T20:15:25.053Z,76.53
2022-09-15T20:18:27.744Z,76.01
2022-09-15T20:21:49.408Z,76.23
2022-09-15T20:24:56.146Z,75.51
2022-09-15T20:27:59.182Z,75.49
2022-09-15T20:31:03.531Z,75.77
2022-09-15T20:34:06.143Z,75.19
2022-09-15T20:37:09.000Z,75.03
2022-09-15T20:40:13.093Z,75.05
2022-09-15T20:43:15.852Z,75.44
2022-09-15T20:46:20.152Z,75.77
2022-09-15T20:49:22.920Z,76.10
2022-09-15T20:52:29.424Z,76.11
2022-09-15T20:55:33.688Z,76.10
2022-09-15T20:58:37.248Z,76.46
2022-09-15T21:01:40.518Z,76.75
2022-09-15T21:04:43.802Z,76.97
2022-09-15T21:07:47.122Z,77.29
2022-09-15T21:10:51.300Z,77.08
2022-09-15T21:13:54.974Z,77.01
2022-09-15T21:16:57.735Z,76.95
2022-09-15T21:20:00.308Z,76.92
2022-09-15T21:23:04.016Z,77.00
2022-09-15T21:26:09.200Z,76.99
2022-09-15T21:29:12.045Z,76.94
2022-09-15T21:32:14.676Z,77.42
2022-09-15T21:35:17.422Z,77.28
2022-09-15T21:38:19.992Z,77.08
2022-09-15T21:41:26.073Z,77.80
2022-09-15T21:44:28.720Z,77.93
2022-09-15T21:47:34.053Z,77.83
2022-09-15T21:50:36.671Z,77.51
2022-09-15T21:53:39.954Z,77.38
2022-09-15T21:56:43.958Z,78.00
2022-09-15T21:59:47.105Z,78.22
2022-09-15T22:02:52.477Z,78.03
2022-09-15T22:05:56.430Z,77.56
2022-09-15T22:08:59.429Z,77.88
2022-09-15T22:12:03.566Z,77.40
2022-09-15T22:15:07.583Z,76.89
2022-09-15T22:18:10.826Z,77.19
2022-09-15T22:21:14.793Z,76.86
2022-09-15T22:24:18.093Z,76.99
2022-09-15T22:27:22.273Z,76.77
2022-09-15T22:30:25.117Z,76.43
2022-09-15T22:33:28.346Z,76.28
2022-09-15T22:36:31.611Z,76.24
2022-09-15T22:39:57.370Z,76.22
2022-09-15T22:42:58.500Z,75.88
2022-09-15T22:46:01.602Z,75.37
2022-09-15T22:49:04.282Z,74.85
2022-09-15T22:52:07.164Z,74.80
2022-09-15T22:55:10.280Z,74.68
2022-09-15T22:58:14.253Z,74.61
2022-09-15T23:01:19.319Z,74.38
2022-09-15T23:04:22.687Z,73.88
2022-09-15T23:07:25.470Z,73.71
2022-09-15T23:10:28.408Z,73.41
2022-09-15T23:13:32.476Z,73.45
2022-09-15T23:16:35.138Z,73.31
2022-09-15T23:19:37.938Z,72.83
2022-09-15T23:22:40.770Z,73.05
2022-09-15T23:25:44.595Z,72.95
2022-09-15T23:28:49.272Z,72.71
2022-09-15T23:31:51.968Z,72.82
2022-09-15T23:34:55.013Z,72.42
2022-09-15T23:37:57.630Z,72.55
2022-09-15T23:41:00.338Z,72.32
2022-09-15T23:44:04.537Z,72.02
2022-09-15T23:47:07.651Z,72.08
2022-09-15T23:50:10.903Z,72.18
2022-09-15T23:53:13.556Z,72.52
2022-09-15T23:56:16.168Z,72.67
2022-09-15T23:59:20.475Z,71.74
